createdAt,value
2018-12-25T00:00:41.134Z,978.03
2018-12-25T00:01:41.069Z,978.01
2018-12-25T00:02:40.997Z,978.05
2018-12-25T00:03:40.929Z,978.05
2018-12-25T00:04:40.860Z,978.02
2018-12-25T00:05:40.792Z,978.02
2018-12-25T00:06:40.723Z,978.03
2018-12-25T00:07:40.657Z,978.03
2018-12-25T00:08:40.587Z,978.03
2018-12-25T00:09:40.520Z,978.08
2018-12-25T00:10:40.458Z,978.06
2018-12-25T00:11:40.386Z,978.05
2018-12-25T00:12:40.319Z,978.07
2018-12-25T00:13:40.251Z,978.09
2018-12-25T00:14:40.181Z,978.15
2018-12-25T00:15:40.121Z,978.15
2018-12-25T00:16:40.048Z,978.18
2018-12-25T00:17:39.981Z,978.19
2018-12-25T00:18:39.917Z,978.15
2018-12-25T00:19:39.845Z,978.15
2018-12-25T00:20:39.778Z,978.17
2018-12-25T00:21:39.710Z,978.21
2018-12-25T00:22:39.641Z,978.20
2018-12-25T00:23:39.580Z,978.22
2018-12-25T00:24:39.506Z,978.20
2018-12-25T00:25:39.441Z,978.22
2018-12-25T00:26:39.374Z,978.22
2018-12-25T00:27:39.304Z,978.18
2018-12-25T00:28:39.237Z,978.20
2018-12-25T00:29:39.169Z,978.24
2018-12-25T00:30:39.108Z,978.22
2018-12-25T00:31:39.032Z,978.26
2018-12-25T00:32:38.967Z,978.36
2018-12-25T00:33:38.897Z,978.38
2018-12-25T00:34:38.829Z,978.38
2018-12-25T00:35:38.760Z,978.39
2018-12-25T00:36:38.695Z,978.38
2018-12-25T00:37:38.630Z,978.38
2018-12-25T00:38:38.558Z,978.42
2018-12-25T00:39:38.491Z,978.39
2018-12-25T00:40:38.423Z,978.41
2018-12-25T00:41:38.352Z,978.44
2018-12-25T00:42:38.285Z,978.46
2018-12-25T00:43:38.220Z,978.48
2018-12-25T00:44:38.148Z,978.51
2018-12-25T00:45:38.083Z,978.50
2018-12-25T00:46:38.015Z,978.49
2018-12-25T00:47:37.949Z,978.48
2018-12-25T00:48:37.886Z,978.46
2018-12-25T00:49:37.810Z,978.47
2018-12-25T00:50:37.741Z,978.49
2018-12-25T00:51:37.678Z,978.47
2018-12-25T00:52:37.611Z,978.47
2018-12-25T00:53:37.543Z,978.47
2018-12-25T00:54:37.477Z,978.50
2018-12-25T00:55:37.409Z,978.52
2018-12-25T00:56:37.354Z,978.47
2018-12-25T00:57:37.370Z,978.47
2018-12-25T00:58:37.206Z,978.48
2018-12-25T00:59:37.138Z,978.50
2018-12-25T01:00:37.067Z,978.45
2018-12-25T01:01:37.003Z,978.47
2018-12-25T01:02:36.933Z,978.44
2018-12-25T01:03:36.864Z,978.51
2018-12-25T01:04:36.798Z,978.53
2018-12-25T01:05:36.730Z,978.48
2018-12-25T01:06:36.666Z,978.55
2018-12-25T01:07:36.597Z,978.46
2018-12-25T01:08:36.527Z,978.53
2018-12-25T01:09:36.461Z,978.53
2018-12-25T01:10:36.391Z,978.55
2018-12-25T01:11:36.331Z,978.53
2018-12-25T01:12:36.260Z,978.53
2018-12-25T01:13:36.194Z,978.55
2018-12-25T01:14:36.121Z,978.53
2018-12-25T01:15:36.054Z,978.54
2018-12-25T01:16:35.992Z,978.57
2018-12-25T01:17:35.921Z,978.58
2018-12-25T01:18:35.858Z,978.57
2018-12-25T01:19:35.783Z,978.56
2018-12-25T01:20:35.717Z,978.56
2018-12-25T01:21:35.655Z,978.51
2018-12-25T01:22:35.582Z,978.52
2018-12-25T01:23:35.513Z,978.52
2018-12-25T01:24:35.447Z,978.52
2018-12-25T01:25:35.376Z,978.40
2018-12-25T01:26:35.312Z,978.35
2018-12-25T01:27:35.246Z,978.31
2018-12-25T01:28:35.175Z,978.32
2018-12-25T01:29:35.119Z,978.28
2018-12-25T01:30:35.041Z,978.32
2018-12-25T01:31:34.974Z,978.31
2018-12-25T01:32:34.911Z,978.30
2018-12-25T01:33:34.838Z,978.30
2018-12-25T01:34:34.769Z,978.29
2018-12-25T01:35:34.801Z,978.27
2018-12-25T01:36:34.638Z,978.27
2018-12-25T01:37:34.569Z,978.24
2018-12-25T01:38:34.501Z,978.26
2018-12-25T01:39:34.432Z,978.18
2018-12-25T01:40:34.367Z,978.18
2018-12-25T01:41:34.299Z,978.17
2018-12-25T01:42:34.229Z,978.20
2018-12-25T01:43:34.163Z,978.13
2018-12-25T01:44:34.095Z,978.19
2018-12-25T01:45:34.028Z,978.13
2018-12-25T01:46:33.959Z,978.07
2018-12-25T01:47:33.893Z,978.04
2018-12-25T01:48:33.827Z,978.07
2018-12-25T01:49:33.760Z,978.06
2018-12-25T01:50:33.690Z,978.07
2018-12-25T01:51:33.620Z,978.08
2018-12-25T01:52:33.555Z,978.03
2018-12-25T01:53:33.489Z,978.07
2018-12-25T01:54:33.415Z,978.01
2018-12-25T01:55:33.349Z,977.97
2018-12-25T01:56:33.282Z,977.99
2018-12-25T01:57:33.219Z,977.99
2018-12-25T01:58:33.148Z,977.98
2018-12-25T01:59:33.086Z,977.99
2018-12-25T02:00:33.013Z,977.99
2018-12-25T02:01:32.947Z,978.00
2018-12-25T02:02:32.877Z,977.98
2018-12-25T02:03:32.817Z,977.97
2018-12-25T02:04:32.742Z,977.89
2018-12-25T02:05:32.679Z,977.94
2018-12-25T02:06:32.607Z,977.93
2018-12-25T02:07:32.538Z,977.94
2018-12-25T02:08:32.472Z,977.96
2018-12-25T02:09:32.405Z,977.99
2018-12-25T02:10:32.338Z,978.04
2018-12-25T02:11:32.270Z,978.02
2018-12-25T02:12:32.204Z,978.04
2018-12-25T02:13:32.134Z,978.11
2018-12-25T02:14:32.068Z,978.15
2018-12-25T02:15:32.001Z,978.24
2018-12-25T02:16:31.932Z,978.25
2018-12-25T02:17:31.863Z,978.30
2018-12-25T02:18:31.795Z,978.30
2018-12-25T02:19:40.035Z,978.28
2018-12-25T02:20:31.660Z,978.34
2018-12-25T02:21:31.593Z,978.37
2018-12-25T02:22:31.520Z,978.38
2018-12-25T02:23:31.455Z,978.45
2018-12-25T02:24:31.388Z,978.45
2018-12-25T02:25:31.324Z,978.48
2018-12-25T02:26:31.258Z,978.58
2018-12-25T02:27:31.187Z,978.58
2018-12-25T02:28:31.119Z,978.60
2018-12-25T02:29:31.053Z,978.64
2018-12-25T02:30:30.984Z,978.58
2018-12-25T02:31:30.918Z,978.59
2018-12-25T02:32:30.847Z,978.56
2018-12-25T02:33:30.777Z,978.57
2018-12-25T02:34:30.713Z,978.56
2018-12-25T02:35:30.643Z,978.60
2018-12-25T02:36:30.577Z,978.50
2018-12-25T02:37:30.511Z,978.55
2018-12-25T02:38:30.443Z,978.49
2018-12-25T02:39:30.377Z,978.49
2018-12-25T02:40:30.312Z,978.43
2018-12-25T02:41:30.238Z,978.43
2018-12-25T02:42:30.176Z,978.41
2018-12-25T02:43:30.101Z,978.37
2018-12-25T02:44:30.040Z,978.36
2018-12-25T02:45:29.969Z,978.30
2018-12-25T02:46:29.897Z,978.29
2018-12-25T02:47:29.831Z,978.25
2018-12-25T02:48:29.768Z,978.22
2018-12-25T02:49:29.705Z,978.22
2018-12-25T02:50:29.690Z,978.19
2018-12-25T02:51:29.559Z,978.18
2018-12-25T02:52:29.500Z,978.21
2018-12-25T02:53:29.430Z,978.16
2018-12-25T02:54:29.359Z,978.11
2018-12-25T02:55:29.289Z,978.07
2018-12-25T02:56:29.220Z,978.07
2018-12-25T02:57:29.153Z,978.06
2018-12-25T02:58:29.083Z,978.02
2018-12-25T02:59:29.017Z,978.05
2018-12-25T03:00:28.947Z,978.03
2018-12-25T03:01:28.884Z,977.93
2018-12-25T03:02:28.816Z,977.90
2018-12-25T03:03:28.743Z,977.87
2018-12-25T03:04:28.678Z,977.91
2018-12-25T03:05:28.610Z,977.89
2018-12-25T03:06:28.603Z,977.90
2018-12-25T03:07:28.476Z,977.85
2018-12-25T03:08:28.405Z,977.87
2018-12-25T03:09:28.339Z,977.86
2018-12-25T03:10:28.267Z,977.86
2018-12-25T03:11:28.202Z,977.87
2018-12-25T03:12:28.134Z,977.87
2018-12-25T03:13:28.071Z,977.87
2018-12-25T03:14:28.002Z,977.86
2018-12-25T03:15:27.934Z,977.86
2018-12-25T03:16:27.863Z,977.87
2018-12-25T03:17:27.800Z,977.84
2018-12-25T03:18:27.725Z,977.85
2018-12-25T03:19:27.659Z,977.87
2018-12-25T03:20:27.600Z,977.87
2018-12-25T03:21:27.522Z,977.90
2018-12-25T03:22:27.452Z,977.92
2018-12-25T03:23:27.385Z,977.95
2018-12-25T03:24:27.318Z,977.95
2018-12-25T03:25:27.247Z,977.93
2018-12-25T03:26:27.210Z,977.96
2018-12-25T03:27:27.112Z,977.92
2018-12-25T03:28:27.046Z,977.96
2018-12-25T03:29:26.976Z,977.91
2018-12-25T03:30:26.909Z,977.88
2018-12-25T03:31:26.851Z,977.90
2018-12-25T03:32:26.773Z,977.83
2018-12-25T03:33:26.710Z,977.83
2018-12-25T03:34:26.634Z,977.83
2018-12-25T03:35:26.568Z,977.83
2018-12-25T03:36:26.498Z,977.84
2018-12-25T03:37:26.430Z,977.81
2018-12-25T03:38:26.369Z,977.84
2018-12-25T03:39:26.298Z,977.85
2018-12-25T03:40:26.225Z,977.83
2018-12-25T03:41:26.155Z,977.80
2018-12-25T03:42:26.087Z,977.80
2018-12-25T03:43:26.021Z,977.82
2018-12-25T03:44:25.986Z,977.80
2018-12-25T03:45:25.882Z,977.82
2018-12-25T03:46:25.813Z,977.78
2018-12-25T03:47:25.745Z,977.77
2018-12-25T03:48:25.676Z,977.78
2018-12-25T03:49:25.610Z,977.78
2018-12-25T03:50:25.646Z,977.79
2018-12-25T03:51:25.474Z,977.78
2018-12-25T03:52:25.405Z,977.82
2018-12-25T03:53:25.332Z,977.78
2018-12-25T03:54:25.265Z,977.77
2018-12-25T03:55:25.215Z,977.78
2018-12-25T03:56:25.131Z,977.77
2018-12-25T03:57:25.060Z,977.77
2018-12-25T03:58:24.989Z,977.77
2018-12-25T03:59:24.928Z,977.77
2018-12-25T04:00:24.859Z,977.80
2018-12-25T04:01:24.800Z,977.82
2018-12-25T04:02:24.729Z,977.80
2018-12-25T04:03:24.658Z,977.83
2018-12-25T04:04:24.581Z,977.89
2018-12-25T04:05:24.512Z,977.87
2018-12-25T04:06:24.440Z,977.86
2018-12-25T04:07:24.377Z,977.87
2018-12-25T04:08:24.306Z,977.87
2018-12-25T04:09:24.239Z,977.87
2018-12-25T04:10:24.169Z,977.85
2018-12-25T04:11:24.102Z,977.87
2018-12-25T04:12:24.030Z,977.87
2018-12-25T04:13:23.963Z,977.90
2018-12-25T04:14:23.895Z,977.90
2018-12-25T04:15:23.890Z,977.88
2018-12-25T04:16:23.756Z,977.86
2018-12-25T04:17:23.696Z,977.89
2018-12-25T04:18:23.620Z,977.83
2018-12-25T04:19:23.552Z,977.89
2018-12-25T04:20:23.485Z,977.88
2018-12-25T04:21:23.417Z,977.89
2018-12-25T04:22:23.344Z,977.92
2018-12-25T04:23:23.277Z,977.93
2018-12-25T04:24:23.207Z,977.91
2018-12-25T04:25:23.135Z,977.90
2018-12-25T04:26:23.073Z,977.88
2018-12-25T04:27:23.002Z,977.88
2018-12-25T04:28:22.930Z,977.90
2018-12-25T04:29:22.865Z,977.96
2018-12-25T04:30:22.796Z,977.96
2018-12-25T04:31:22.728Z,977.94
2018-12-25T04:32:22.660Z,977.91
2018-12-25T04:33:22.592Z,977.90
2018-12-25T04:34:22.524Z,977.88
2018-12-25T04:35:22.453Z,977.96
2018-12-25T04:36:22.387Z,977.91
2018-12-25T04:37:22.316Z,977.86
2018-12-25T04:38:22.247Z,977.90
2018-12-25T04:39:22.176Z,977.89
2018-12-25T04:40:22.114Z,977.92
2018-12-25T04:41:22.042Z,977.94
2018-12-25T04:42:21.985Z,977.91
2018-12-25T04:43:21.906Z,977.98
2018-12-25T04:44:21.837Z,978.00
2018-12-25T04:45:21.766Z,978.02
2018-12-25T04:46:21.696Z,977.99
2018-12-25T04:47:21.639Z,977.99
2018-12-25T04:48:21.559Z,977.99
2018-12-25T04:49:21.490Z,978.02
2018-12-25T04:50:29.158Z,977.97
2018-12-25T04:51:21.353Z,977.98
2018-12-25T04:52:21.286Z,978.00
2018-12-25T04:53:21.215Z,977.96
2018-12-25T04:54:21.149Z,977.96
2018-12-25T04:55:21.090Z,977.98
2018-12-25T04:56:21.011Z,978.00
2018-12-25T04:57:20.945Z,977.98
2018-12-25T04:58:20.876Z,978.00
2018-12-25T04:59:20.801Z,977.93
2018-12-25T05:00:20.749Z,977.96
2018-12-25T05:01:20.666Z,977.99
2018-12-25T05:02:20.596Z,977.97
2018-12-25T05:03:20.543Z,977.94
2018-12-25T05:04:20.459Z,977.96
2018-12-25T05:05:20.393Z,977.96
2018-12-25T05:06:20.323Z,977.97
2018-12-25T05:07:20.256Z,978.01
2018-12-25T05:08:20.185Z,977.98
2018-12-25T05:09:20.118Z,978.01
2018-12-25T05:10:20.049Z,978.02
2018-12-25T05:11:19.980Z,978.05
2018-12-25T05:12:19.910Z,978.03
2018-12-25T05:13:19.946Z,978.04
2018-12-25T05:14:19.782Z,978.03
2018-12-25T05:15:19.704Z,978.02
2018-12-25T05:16:19.641Z,978.05
2018-12-25T05:17:19.567Z,978.00
2018-12-25T05:18:19.497Z,978.03
2018-12-25T05:19:19.505Z,978.05
2018-12-25T05:20:19.361Z,978.02
2018-12-25T05:21:19.292Z,978.06
2018-12-25T05:22:19.222Z,978.10
2018-12-25T05:23:19.155Z,978.06
2018-12-25T05:24:19.083Z,978.09
2018-12-25T05:25:19.018Z,978.13
2018-12-25T05:26:18.952Z,978.20
2018-12-25T05:27:18.879Z,978.22
2018-12-25T05:28:18.814Z,978.26
2018-12-25T05:29:18.745Z,978.24
2018-12-25T05:30:18.676Z,978.23
2018-12-25T05:31:18.606Z,978.23
2018-12-25T05:32:18.537Z,978.28
2018-12-25T05:33:18.468Z,978.27
2018-12-25T05:34:18.398Z,978.29
2018-12-25T05:35:18.329Z,978.28
2018-12-25T05:36:18.262Z,978.29
2018-12-25T05:37:18.194Z,978.33
2018-12-25T05:38:18.144Z,978.30
2018-12-25T05:39:18.057Z,978.32
2018-12-25T05:40:17.992Z,978.35
2018-12-25T05:41:17.931Z,978.35
2018-12-25T05:42:17.848Z,978.38
2018-12-25T05:43:17.798Z,978.36
2018-12-25T05:44:17.712Z,978.33
2018-12-25T05:45:17.648Z,978.35
2018-12-25T05:46:17.576Z,978.32
2018-12-25T05:47:17.509Z,978.33
2018-12-25T05:48:17.438Z,978.40
2018-12-25T05:49:17.374Z,978.40
2018-12-25T05:50:17.301Z,978.40
2018-12-25T05:51:17.233Z,978.41
2018-12-25T05:52:17.169Z,978.42
2018-12-25T05:53:17.098Z,978.42
2018-12-25T05:54:17.035Z,978.41
2018-12-25T05:55:16.960Z,978.40
2018-12-25T05:56:16.891Z,978.46
2018-12-25T05:57:16.827Z,978.44
2018-12-25T05:58:16.752Z,978.45
2018-12-25T05:59:16.687Z,978.42
2018-12-25T06:00:16.617Z,978.43
2018-12-25T06:01:16.553Z,978.46
2018-12-25T06:02:16.480Z,978.43
2018-12-25T06:03:16.411Z,978.47
2018-12-25T06:04:16.344Z,978.49
2018-12-25T06:05:16.277Z,978.50
2018-12-25T06:06:16.208Z,978.48
2018-12-25T06:07:16.138Z,978.52
2018-12-25T06:08:16.072Z,978.47
2018-12-25T06:09:16.001Z,978.45
2018-12-25T06:10:15.933Z,978.47
2018-12-25T06:11:15.866Z,978.42
2018-12-25T06:12:15.797Z,978.44
2018-12-25T06:13:15.735Z,978.44
2018-12-25T06:14:15.662Z,978.47
2018-12-25T06:15:15.589Z,978.48
2018-12-25T06:16:15.525Z,978.42
2018-12-25T06:17:15.455Z,978.40
2018-12-25T06:18:15.387Z,978.38
2018-12-25T06:19:15.315Z,978.33
2018-12-25T06:20:15.252Z,978.36
2018-12-25T06:21:15.183Z,978.35
2018-12-25T06:22:15.112Z,978.36
2018-12-25T06:23:15.047Z,978.33
2018-12-25T06:24:14.982Z,978.39
2018-12-25T06:25:14.910Z,978.39
2018-12-25T06:26:14.841Z,978.33
2018-12-25T06:27:14.772Z,978.38
2018-12-25T06:28:14.705Z,978.38
2018-12-25T06:29:14.635Z,978.36
2018-12-25T06:30:14.569Z,978.38
2018-12-25T06:31:14.501Z,978.32
2018-12-25T06:32:14.428Z,978.39
2018-12-25T06:33:14.363Z,978.35
2018-12-25T06:34:14.293Z,978.32
2018-12-25T06:35:14.226Z,978.36
2018-12-25T06:36:14.159Z,978.34
2018-12-25T06:37:14.088Z,978.34
2018-12-25T06:38:14.021Z,978.40
2018-12-25T06:39:13.955Z,978.37
2018-12-25T06:40:13.883Z,978.39
2018-12-25T06:41:13.816Z,978.31
2018-12-25T06:42:13.752Z,978.35
2018-12-25T06:43:13.679Z,978.38
2018-12-25T06:44:13.608Z,978.37
2018-12-25T06:45:13.543Z,978.36
2018-12-25T06:46:13.474Z,978.37
2018-12-25T06:47:13.407Z,978.34
2018-12-25T06:48:13.338Z,978.30
2018-12-25T06:49:13.275Z,978.39
2018-12-25T06:50:13.199Z,978.33
2018-12-25T06:51:13.133Z,978.33
2018-12-25T06:52:13.065Z,978.35
2018-12-25T06:53:12.993Z,978.35
2018-12-25T06:54:12.927Z,978.37
2018-12-25T06:55:12.859Z,978.35
2018-12-25T06:56:12.790Z,978.38
2018-12-25T06:57:12.723Z,978.37
2018-12-25T06:58:12.660Z,978.32
2018-12-25T06:59:12.585Z,978.33
2018-12-25T07:00:12.517Z,978.31
2018-12-25T07:01:12.450Z,978.34
2018-12-25T07:02:12.387Z,978.36
2018-12-25T07:03:12.311Z,978.38
2018-12-25T07:04:12.244Z,978.40
2018-12-25T07:05:12.176Z,978.38
2018-12-25T07:06:12.107Z,978.41
2018-12-25T07:07:12.039Z,978.35
2018-12-25T07:08:11.974Z,978.33
2018-12-25T07:09:11.906Z,978.31
2018-12-25T07:10:11.836Z,978.23
2018-12-25T07:11:11.766Z,978.21
2018-12-25T07:12:11.698Z,978.18
2018-12-25T07:13:11.630Z,978.16
2018-12-25T07:14:11.559Z,978.11
2018-12-25T07:15:11.490Z,978.15
2018-12-25T07:16:11.427Z,978.17
2018-12-25T07:17:11.355Z,978.12
2018-12-25T07:18:11.287Z,978.14
2018-12-25T07:19:11.220Z,978.22
2018-12-25T07:20:11.151Z,978.27
2018-12-25T07:21:12.264Z,978.30
2018-12-25T07:22:11.013Z,978.30
2018-12-25T07:23:10.948Z,978.32
2018-12-25T07:24:10.878Z,978.32
2018-12-25T07:25:10.810Z,978.28
2018-12-25T07:26:10.740Z,978.27
2018-12-25T07:27:10.674Z,978.27
2018-12-25T07:28:10.605Z,978.27
2018-12-25T07:29:10.536Z,978.26
2018-12-25T07:30:10.467Z,978.27
2018-12-25T07:31:10.400Z,978.27
2018-12-25T07:32:10.331Z,978.28
2018-12-25T07:33:10.263Z,978.26
2018-12-25T07:34:10.194Z,978.25
2018-12-25T07:35:10.127Z,978.24
2018-12-25T07:36:10.060Z,978.18
2018-12-25T07:37:09.993Z,978.14
2018-12-25T07:38:09.923Z,978.08
2018-12-25T07:39:09.860Z,978.09
2018-12-25T07:40:09.787Z,978.10
2018-12-25T07:41:09.718Z,978.12
2018-12-25T07:42:09.649Z,978.11
2018-12-25T07:43:09.580Z,978.08
2018-12-25T07:44:09.511Z,978.06
2018-12-25T07:45:09.448Z,978.07
2018-12-25T07:46:09.377Z,978.11
2018-12-25T07:47:11.220Z,978.13
2018-12-25T07:48:09.237Z,978.18
2018-12-25T07:49:09.174Z,978.14
2018-12-25T07:50:09.163Z,978.19
2018-12-25T07:51:09.032Z,978.21
2018-12-25T07:52:08.968Z,978.25
2018-12-25T07:53:08.900Z,978.25
2018-12-25T07:54:08.831Z,978.27
2018-12-25T07:55:08.757Z,978.30
2018-12-25T07:56:08.695Z,978.24
2018-12-25T07:57:08.626Z,978.25
2018-12-25T07:58:08.556Z,978.22
2018-12-25T07:59:08.489Z,978.20
2018-12-25T08:00:08.420Z,978.20
2018-12-25T08:01:08.353Z,978.24
2018-12-25T08:02:08.279Z,978.23
2018-12-25T08:03:08.215Z,978.25
2018-12-25T08:04:08.147Z,978.28
2018-12-25T08:05:08.083Z,978.28
2018-12-25T08:06:08.008Z,978.24
2018-12-25T08:07:07.943Z,978.31
2018-12-25T08:08:07.874Z,978.28
2018-12-25T08:09:07.805Z,978.29
2018-12-25T08:10:07.736Z,978.31
2018-12-25T08:11:07.672Z,978.33
2018-12-25T08:12:07.600Z,978.38
2018-12-25T08:13:07.531Z,978.34
2018-12-25T08:14:07.463Z,978.34
2018-12-25T08:15:07.396Z,978.33
2018-12-25T08:16:07.324Z,978.35
2018-12-25T08:17:07.267Z,978.34
2018-12-25T08:18:07.187Z,978.34
2018-12-25T08:19:07.120Z,978.38
2018-12-25T08:20:07.051Z,978.38
2018-12-25T08:21:06.984Z,978.39
2018-12-25T08:22:06.913Z,978.43
2018-12-25T08:23:06.847Z,978.46
2018-12-25T08:24:06.777Z,978.51
2018-12-25T08:25:06.709Z,978.49
2018-12-25T08:26:06.641Z,978.52
2018-12-25T08:27:06.571Z,978.50
2018-12-25T08:28:06.507Z,978.49
2018-12-25T08:29:06.434Z,978.54
2018-12-25T08:30:06.363Z,978.51
2018-12-25T08:31:08.152Z,978.58
2018-12-25T08:32:06.229Z,978.61
2018-12-25T08:33:06.161Z,978.59
2018-12-25T08:34:06.090Z,978.55
2018-12-25T08:35:06.024Z,978.59
2018-12-25T08:36:05.949Z,978.59
2018-12-25T08:37:05.887Z,978.59
2018-12-25T08:38:05.819Z,978.60
2018-12-25T08:39:05.750Z,978.60
2018-12-25T08:40:05.679Z,978.60
2018-12-25T08:41:05.613Z,978.63
2018-12-25T08:42:05.543Z,978.62
2018-12-25T08:43:05.476Z,978.61
2018-12-25T08:44:05.405Z,978.64
2018-12-25T08:45:05.341Z,978.69
2018-12-25T08:46:05.271Z,978.70
2018-12-25T08:47:05.204Z,978.69
2018-12-25T08:48:05.132Z,978.68
2018-12-25T08:49:05.063Z,978.75
2018-12-25T08:50:05.011Z,978.72
2018-12-25T08:51:04.924Z,978.71
2018-12-25T08:52:04.858Z,978.69
2018-12-25T08:53:04.793Z,978.73
2018-12-25T08:54:04.720Z,978.74
2018-12-25T08:55:04.652Z,978.68
2018-12-25T08:56:04.584Z,978.75
2018-12-25T08:57:04.519Z,978.71
2018-12-25T08:58:04.449Z,978.74
2018-12-25T08:59:04.378Z,978.71
2018-12-25T09:00:04.318Z,978.70
2018-12-25T09:01:04.243Z,978.71
2018-12-25T09:02:04.174Z,978.67
2018-12-25T09:03:04.107Z,978.66
2018-12-25T09:04:04.039Z,978.67
2018-12-25T09:05:03.975Z,978.70
2018-12-25T09:06:03.901Z,978.68
2018-12-25T09:07:03.831Z,978.67
2018-12-25T09:08:03.764Z,978.64
2018-12-25T09:09:03.698Z,978.66
2018-12-25T09:10:03.627Z,978.66
2018-12-25T09:11:03.559Z,978.66
2018-12-25T09:12:03.495Z,978.61
2018-12-25T09:13:04.769Z,978.62
2018-12-25T09:14:03.356Z,978.67
2018-12-25T09:15:03.288Z,978.63
2018-12-25T09:16:03.219Z,978.62
2018-12-25T09:17:03.153Z,978.65
2018-12-25T09:18:03.083Z,978.67
2018-12-25T09:19:03.018Z,978.72
2018-12-25T09:20:02.947Z,978.70
2018-12-25T09:21:02.879Z,978.72
2018-12-25T09:22:02.809Z,978.69
2018-12-25T09:23:02.741Z,978.69
2018-12-25T09:24:02.675Z,978.69
2018-12-25T09:25:02.607Z,978.66
2018-12-25T09:26:02.537Z,978.68
2018-12-25T09:27:02.471Z,978.70
2018-12-25T09:28:02.403Z,978.73
2018-12-25T09:29:02.343Z,978.73
2018-12-25T09:30:02.269Z,978.73
2018-12-25T09:31:02.199Z,978.75
2018-12-25T09:32:02.133Z,978.76
2018-12-25T09:33:02.065Z,978.77
2018-12-25T09:34:01.993Z,978.77
2018-12-25T09:35:01.935Z,978.77
2018-12-25T09:36:01.861Z,978.75
2018-12-25T09:37:01.790Z,978.73
2018-12-25T09:38:01.724Z,978.70
2018-12-25T09:39:01.653Z,978.70
2018-12-25T09:40:01.587Z,978.70
2018-12-25T09:41:01.520Z,978.71
2018-12-25T09:42:01.451Z,978.71
2018-12-25T09:43:01.384Z,978.70
2018-12-25T09:44:01.318Z,978.71
2018-12-25T09:45:01.258Z,978.75
2018-12-25T09:46:01.262Z,978.75
2018-12-25T09:47:01.121Z,978.74
2018-12-25T09:48:01.039Z,978.77
2018-12-25T09:49:00.974Z,978.75
2018-12-25T09:50:00.905Z,978.73
2018-12-25T09:51:00.842Z,978.76
2018-12-25T09:52:00.768Z,978.74
2018-12-25T09:53:00.715Z,978.73
2018-12-25T09:54:00.634Z,978.69
2018-12-25T09:55:00.564Z,978.68
2018-12-25T09:56:00.497Z,978.70
2018-12-25T09:57:00.430Z,978.72
2018-12-25T09:58:00.364Z,978.76
2018-12-25T09:59:00.296Z,978.78
2018-12-25T10:00:00.241Z,978.80
2018-12-25T10:01:00.163Z,978.79
2018-12-25T10:02:00.092Z,978.84
2018-12-25T10:03:00.023Z,978.84
2018-12-25T10:03:59.958Z,978.82
2018-12-25T10:04:59.889Z,978.81
2018-12-25T10:05:59.818Z,978.78
2018-12-25T10:06:59.751Z,978.84
2018-12-25T10:07:59.686Z,978.88
2018-12-25T10:08:59.621Z,978.84
2018-12-25T10:09:59.548Z,978.86
2018-12-25T10:10:59.482Z,978.88
2018-12-25T10:11:59.414Z,978.89
2018-12-25T10:12:59.348Z,978.91
2018-12-25T10:13:59.278Z,978.92
2018-12-25T10:14:59.209Z,978.90
2018-12-25T10:15:59.144Z,978.88
2018-12-25T10:16:59.072Z,978.86
2018-12-25T10:17:59.635Z,978.91
2018-12-25T10:18:58.943Z,978.91
2018-12-25T10:19:58.870Z,978.95
2018-12-25T10:20:58.809Z,978.90
2018-12-25T10:22:02.900Z,978.90
2018-12-25T10:22:58.668Z,978.83
2018-12-25T10:23:58.602Z,978.74
2018-12-25T10:24:58.539Z,978.71
2018-12-25T10:25:58.465Z,978.68
2018-12-25T10:26:58.398Z,978.66
2018-12-25T10:27:58.335Z,978.70
2018-12-25T10:28:58.261Z,978.63
2018-12-25T10:29:58.193Z,978.66
2018-12-25T10:30:58.128Z,978.63
2018-12-25T10:31:58.068Z,978.61
2018-12-25T10:32:57.990Z,978.62
2018-12-25T10:33:57.920Z,978.61
2018-12-25T10:34:57.853Z,978.60
2018-12-25T10:35:57.792Z,978.59
2018-12-25T10:36:57.717Z,978.58
2018-12-25T10:37:57.648Z,978.59
2018-12-25T10:38:57.594Z,978.56
2018-12-25T10:39:57.516Z,978.61
2018-12-25T10:40:57.447Z,978.63
2018-12-25T10:41:57.379Z,978.61
2018-12-25T10:42:57.318Z,978.65
2018-12-25T10:43:57.245Z,978.66
2018-12-25T10:44:57.175Z,978.65
2018-12-25T10:45:57.106Z,978.64
2018-12-25T10:46:57.038Z,978.70
2018-12-25T10:47:56.971Z,978.62
2018-12-25T10:48:56.902Z,978.63
2018-12-25T10:49:56.834Z,978.59
2018-12-25T10:50:56.768Z,978.53
2018-12-25T10:51:56.704Z,978.52
2018-12-25T10:52:56.713Z,978.50
2018-12-25T10:53:56.568Z,978.42
2018-12-25T10:54:56.495Z,978.49
2018-12-25T10:55:56.428Z,978.44
2018-12-25T10:56:56.359Z,978.50
2018-12-25T10:57:56.289Z,978.47
2018-12-25T10:58:56.220Z,978.43
2018-12-25T10:59:56.156Z,978.38
2018-12-25T11:00:56.089Z,978.28
2018-12-25T11:01:56.019Z,978.28
2018-12-25T11:02:55.954Z,978.28
2018-12-25T11:03:55.886Z,978.30
2018-12-25T11:04:55.818Z,978.29
2018-12-25T11:05:55.752Z,978.29
2018-12-25T11:06:55.679Z,978.27
2018-12-25T11:07:55.615Z,978.27
2018-12-25T11:08:55.545Z,978.25
2018-12-25T11:09:55.475Z,978.17
2018-12-25T11:10:55.411Z,978.11
2018-12-25T11:11:55.338Z,978.10
2018-12-25T11:12:55.282Z,977.98
2018-12-25T11:13:55.205Z,978.07
2018-12-25T11:14:56.147Z,978.03
2018-12-25T11:15:55.070Z,978.04
2018-12-25T11:16:55.004Z,977.98
2018-12-25T11:17:54.931Z,977.95
2018-12-25T11:18:54.875Z,977.88
2018-12-25T11:19:54.802Z,977.85
2018-12-25T11:20:54.734Z,977.85
2018-12-25T11:21:54.663Z,977.86
2018-12-25T11:22:54.592Z,977.84
2018-12-25T11:23:54.539Z,977.87
2018-12-25T11:24:54.462Z,977.84
2018-12-25T11:25:54.389Z,977.87
2018-12-25T11:26:54.322Z,977.83
2018-12-25T11:27:54.256Z,977.81
2018-12-25T11:28:54.182Z,977.87
2018-12-25T11:29:54.120Z,977.93
2018-12-25T11:30:54.054Z,977.95
2018-12-25T11:31:53.984Z,978.03
2018-12-25T11:32:53.917Z,978.06
2018-12-25T11:33:53.848Z,978.03
2018-12-25T11:34:53.783Z,978.01
2018-12-25T11:35:53.711Z,977.99
2018-12-25T11:36:53.644Z,978.00
2018-12-25T11:37:53.576Z,978.01
2018-12-25T11:38:53.505Z,977.97
2018-12-25T11:39:53.444Z,977.97
2018-12-25T11:40:53.373Z,977.91
2018-12-25T11:41:53.306Z,977.78
2018-12-25T11:42:53.238Z,977.71
2018-12-25T11:43:53.176Z,977.68
2018-12-25T11:44:53.112Z,977.69
2018-12-25T11:45:53.033Z,977.77
2018-12-25T11:46:52.967Z,977.75
2018-12-25T11:47:52.899Z,977.76
2018-12-25T11:48:52.832Z,977.77
2018-12-25T11:49:52.766Z,977.82
2018-12-25T11:50:52.698Z,977.91
2018-12-25T11:51:52.628Z,977.92
2018-12-25T11:52:52.560Z,977.94
2018-12-25T11:53:52.490Z,977.96
2018-12-25T11:54:52.419Z,977.94
2018-12-25T11:55:52.355Z,977.93
2018-12-25T11:56:52.288Z,977.93
2018-12-25T11:57:52.218Z,977.84
2018-12-25T11:58:52.154Z,977.85
2018-12-25T11:59:52.086Z,977.87
2018-12-25T12:00:52.020Z,977.85
2018-12-25T12:01:51.947Z,977.86
2018-12-25T12:02:51.879Z,977.90
2018-12-25T12:03:51.811Z,977.95
2018-12-25T12:04:51.745Z,978.00
2018-12-25T12:05:51.671Z,978.05
2018-12-25T12:06:51.607Z,978.09
2018-12-25T12:07:51.551Z,978.13
2018-12-25T12:08:51.473Z,978.10
2018-12-25T12:09:51.403Z,978.07
2018-12-25T12:10:51.334Z,978.09
2018-12-25T12:11:51.271Z,978.08
2018-12-25T12:12:51.202Z,978.08
2018-12-25T12:13:51.134Z,978.00
2018-12-25T12:14:51.068Z,978.03
2018-12-25T12:15:51.004Z,978.02
2018-12-25T12:16:50.928Z,978.02
2018-12-25T12:17:50.864Z,978.07
2018-12-25T12:18:50.798Z,978.11
2018-12-25T12:19:50.726Z,978.14
2018-12-25T12:20:50.675Z,978.22
2018-12-25T12:21:50.592Z,978.32
2018-12-25T12:22:50.524Z,978.38
2018-12-25T12:23:50.455Z,978.43
2018-12-25T12:24:50.388Z,978.44
2018-12-25T12:25:50.321Z,978.48
2018-12-25T12:26:50.255Z,978.48
2018-12-25T12:27:50.185Z,978.55